Time;durP1;ratioP1;P1;durP2;ratioP2;P2;SDS_P1;SDS_P2;PMS_P1;PMS_P2;Temp;Humidity;BMP_temperature;BMP_pressure;BME280_temperature;BME280_humidity;BME280_pressure;Samples;Min_cycle;Max_cycle;Signal;HPM_P1;HPM_P2
2023/03/27 00:01:51;;;;;;;18.47;5.97;;;6.70;92.30;;;;;;5055285;28;20485;-56
2023/03/27 00:04:18;;;;;;;10.90;5.37;;;6.70;92.90;;;;;;5056105;28;20469;-57
2023/03/27 00:06:47;;;;;;;3.83;2.87;;;6.70;93.20;;;;;;5055590;28;21003;-55
2023/03/27 00:09:15;;;;;;;6.80;2.67;;;6.60;93.10;;;;;;5055879;28;20460;-56
2023/03/27 00:11:42;;;;;;;13.80;2.90;;;6.60;93.20;;;;;;5055864;28;20454;-57
2023/03/27 00:14:10;;;;;;;8.30;3.87;;;6.60;93.00;;;;;;5055637;28;20470;-56
2023/03/27 00:16:37;;;;;;;12.47;3.10;;;6.60;93.40;;;;;;5055791;28;20445;-57
2023/03/27 00:19:04;;;;;;;11.73;2.73;;;6.60;93.30;;;;;;5055782;28;20457;-56
2023/03/27 00:21:33;;;;;;;9.47;2.23;;;6.50;92.90;;;;;;5055708;28;20827;-56
2023/03/27 00:23:59;;;;;;;5.00;1.93;;;6.50;93.10;;;;;;5055430;28;20516;-56
2023/03/27 00:26:29;;;;;;;5.60;1.93;;;6.50;93.20;;;;;;5055555;28;20450;-56
2023/03/27 00:28:56;;;;;;;10.23;3.33;;;6.40;93.20;;;;;;5055078;28;20951;-56
2023/03/27 00:31:24;;;;;;;9.17;2.33;;;6.40;93.60;;;;;;5054902;28;20812;-56
2023/03/27 00:33:51;;;;;;;13.90;2.83;;;6.40;93.60;;;;;;5055363;28;20535;-56
2023/03/27 00:36:17;;;;;;;8.53;2.47;;;6.30;93.50;;;;;;5055402;28;20449;-56
2023/03/27 00:38:44;;;;;;;6.17;2.10;;;6.30;93.50;;;;;;5055095;28;20492;-56
2023/03/27 00:41:11;;;;;;;11.20;2.23;;;6.20;94.20;;;;;;5055290;28;20499;-56
2023/03/27 00:43:42;;;;;;;4.83;1.77;;;6.20;94.70;;;;;;5055080;28;20500;-56
2023/03/27 00:46:26;;;;;;;7.47;2.77;;;6.20;94.50;;;;;;5055219;28;20520;-56
2023/03/27 00:48:56;;;;;;;9.40;2.80;;;6.20;94.60;;;;;;5055154;28;20434;-56
2023/03/27 00:51:25;;;;;;;9.83;2.30;;;6.20;94.90;;;;;;5055093;28;20449;-56
2023/03/27 00:53:53;;;;;;;4.63;1.70;;;6.10;94.80;;;;;;5054945;28;20480;-56
2023/03/27 00:56:20;;;;;;;9.60;2.33;;;6.10;95.10;;;;;;5055039;28;20446;-56
2023/03/27 00:58:50;;;;;;;13.90;2.93;;;6.10;95.40;;;;;;5054933;28;20484;-56
2023/03/27 01:01:19;;;;;;;12.20;2.00;;;6.10;95.20;;;;;;5054935;28;20469;-56
2023/03/27 01:03:47;;;;;;;8.30;2.67;;;6.10;95.30;;;;;;5054572;28;20543;-56
2023/03/27 01:06:16;;;;;;;9.33;2.50;;;6.20;95.30;;;;;;5054729;28;20483;-56
2023/03/27 01:08:45;;;;;;;9.00;2.33;;;6.10;95.30;;;;;;5054407;28;20456;-56
2023/03/27 01:11:24;;;;;;;9.57;1.77;;;6.00;95.20;;;;;;5054758;28;20521;-56
2023/03/27 01:14:02;;;;;;;6.67;1.80;;;5.90;95.50;;;;;;5053582;28;20540;-56
2023/03/27 01:16:39;;;;;;;5.77;2.17;;;5.90;95.90;;;;;;5054297;28;20441;-56
2023/03/27 01:19:37;;;;;;;8.60;1.90;;;5.90;95.90;;;;;;5054242;28;20437;-56
2023/03/27 01:22:31;;;;;;;12.03;2.53;;;5.80;95.70;;;;;;5053960;28;20485;-56
2023/03/27 01:25:27;;;;;;;7.63;2.17;;;5.90;95.90;;;;;;5054534;28;20430;-56
2023/03/27 01:28:27;;;;;;;6.00;2.10;;;5.90;96.20;;;;;;5054349;28;20445;-56
2023/03/27 01:31:03;;;;;;;5.60;1.70;;;5.80;95.60;;;;;;5043657;28;20465;-56
2023/03/27 01:33:58;;;;;;;11.13;1.87;;;5.70;95.60;;;;;;5054162;28;20476;-56
2023/03/27 01:36:40;;;;;;;10.93;1.53;;;5.80;95.90;;;;;;5054023;28;20437;-56
2023/03/27 01:39:31;;;;;;;6.30;2.00;;;5.70;96.00;;;;;;5053884;28;20454;-56
2023/03/27 01:42:07;;;;;;;11.00;2.27;;;5.80;95.90;;;;;;5054015;28;20492;-56
2023/03/27 01:44:43;;;;;;;8.90;1.80;;;5.70;95.90;;;;;;5054067;28;20873;-56
2023/03/27 01:47:19;;;;;;;7.33;2.07;;;5.70;96.00;;;;;;5054040;28;20801;-55
2023/03/27 01:49:51;;;;;;;3.63;1.70;;;5.70;96.40;;;;;;5054596;28;20490;-56
2023/03/27 01:52:22;;;;;;;9.30;1.80;;;5.70;96.20;;;;;;5053834;28;20437;-56
2023/03/27 01:54:57;;;;;;;5.97;1.90;;;5.70;96.30;;;;;;5053970;28;20477;-56
2023/03/27 01:57:28;;;;;;;5.77;1.77;;;5.70;96.30;;;;;;5053817;28;20437;-56
2023/03/27 01:59:59;;;;;;;6.60;1.83;;;5.70;96.40;;;;;;5053592;28;20437;-56
2023/03/27 02:02:30;;;;;;;7.90;1.97;;;5.70;96.50;;;;;;5053313;28;20886;-56
2023/03/27 02:05:02;;;;;;;7.57;3.30;;;5.70;96.60;;;;;;5053157;28;20537;-56
2023/03/27 02:07:32;;;;;;;10.70;1.97;;;5.70;96.50;;;;;;5053391;28;20803;-56
2023/03/27 02:10:05;;;;;;;11.40;1.73;;;5.60;96.50;;;;;;5053682;28;20468;-56
2023/03/27 02:12:34;;;;;;;4.10;1.57;;;5.60;96.50;;;;;;5053298;28;20473;-56
2023/03/27 02:15:06;;;;;;;4.80;1.87;;;5.60;96.60;;;;;;5053596;28;20470;-56
2023/03/27 02:17:37;;;;;;;3.73;1.90;;;5.50;96.30;;;;;;5053465;28;20942;-56
2023/03/27 02:20:10;;;;;;;4.10;1.80;;;5.60;96.60;;;;;;5053790;28;20472;-56
2023/03/27 02:22:38;;;;;;;10.87;2.13;;;5.60;96.30;;;;;;5053533;28;20849;-56
2023/03/27 02:25:23;;;;;;;3.47;1.83;;;5.50;96.70;;;;;;5053357;28;20456;-56
2023/03/27 02:27:54;;;;;;;5.53;1.73;;;5.50;96.40;;;;;;5053578;28;20437;-56
2023/03/27 02:30:26;;;;;;;6.07;1.53;;;5.40;96.30;;;;;;5053509;28;20437;-56
2023/03/27 02:32:59;;;;;;;4.20;1.97;;;5.40;96.20;;;;;;5053243;28;20462;-56
2023/03/27 02:35:37;;;;;;;6.70;2.00;;;5.40;96.40;;;;;;5053537;28;20425;-56
2023/03/27 02:38:11;;;;;;;16.87;3.03;;;5.40;96.50;;;;;;5053040;28;20449;-56
2023/03/27 02:40:46;;;;;;;5.97;2.30;;;5.30;96.50;;;;;;5053266;28;20457;-56
2023/03/27 02:43:17;;;;;;;8.30;2.33;;;5.20;96.70;;;;;;5053110;28;20488;-56
2023/03/27 02:45:51;;;;;;;5.80;2.00;;;5.20;96.50;;;;;;5053448;28;20433;-56
2023/03/27 02:48:24;;;;;;;3.70;1.63;;;5.20;96.90;;;;;;5053308;28;20421;-56
2023/03/27 02:50:55;;;;;;;4.83;1.67;;;5.20;96.70;;;;;;5053148;28;20438;-56
2023/03/27 02:53:25;;;;;;;4.23;2.00;;;5.20;96.70;;;;;;5053301;28;20481;-56
2023/03/27 02:55:57;;;;;;;6.83;1.80;;;5.10;96.90;;;;;;5053249;28;20438;-56
2023/03/27 02:58:31;;;;;;;6.80;2.17;;;5.10;97.10;;;;;;5053519;28;20430;-56
2023/03/27 03:00:59;;;;;;;6.90;2.17;;;5.10;97.40;;;;;;5053200;28;20513;-56
2023/03/27 03:03:31;;;;;;;6.73;2.07;;;5.20;97.60;;;;;;5053120;28;20554;-56
2023/03/27 03:05:58;;;;;;;11.27;2.30;;;5.20;97.20;;;;;;5053030;28;20430;-56
2023/03/27 03:08:29;;;;;;;5.93;1.80;;;5.10;97.10;;;;;;5052787;28;20947;-56
2023/03/27 03:11:02;;;;;;;6.20;1.67;;;5.20;97.30;;;;;;5053081;28;20434;-56
2023/03/27 03:13:29;;;;;;;18.53;3.10;;;5.10;97.10;;;;;;5052913;28;20548;-56
2023/03/27 03:15:56;;;;;;;5.60;2.50;;;5.10;97.20;;;;;;5052698;28;20445;-56
2023/03/27 03:18:23;;;;;;;9.17;2.30;;;5.10;97.20;;;;;;5053802;28;20455;-56
2023/03/27 03:20:52;;;;;;;13.93;2.63;;;5.00;97.20;;;;;;5052901;28;20449;-56
2023/03/27 03:23:19;;;;;;;8.40;2.07;;;5.10;97.40;;;;;;5052631;28;20497;-56
2023/03/27 03:25:49;;;;;;;5.77;1.93;;;5.00;97.50;;;;;;5052810;28;20453;-56
2023/03/27 03:28:17;;;;;;;9.07;2.37;;;5.00;97.50;;;;;;5052869;28;20503;-56
2023/03/27 03:30:49;;;;;;;6.17;2.50;;;5.00;97.30;;;;;;5052751;28;20633;-56
2023/03/27 03:33:16;;;;;;;4.70;1.53;;;4.90;97.40;;;;;;5052524;28;20994;-56
2023/03/27 03:35:45;;;;;;;6.30;2.10;;;4.90;97.30;;;;;;5052329;28;21009;-56
2023/03/27 03:38:12;;;;;;;5.07;1.60;;;4.80;97.00;;;;;;5054941;28;20457;-56
2023/03/27 03:40:39;;;;;;;6.60;2.00;;;4.70;97.10;;;;;;5056494;28;20434;-56
2023/03/27 03:43:06;;;;;;;10.63;2.20;;;4.70;97.20;;;;;;5055991;28;21006;-56
2023/03/27 03:45:34;;;;;;;8.07;2.27;;;4.60;97.50;;;;;;5056469;28;20481;-56
2023/03/27 03:48:01;;;;;;;5.07;2.10;;;4.50;97.60;;;;;;5056047;28;20955;-55
2023/03/27 03:50:28;;;;;;;15.03;2.93;;;4.50;97.90;;;;;;5055864;28;20951;-56
2023/03/27 03:52:54;;;;;;;4.77;2.03;;;4.40;98.00;;;;;;5056553;28;20543;-56
2023/03/27 03:55:21;;;;;;;5.57;1.47;;;4.40;98.10;;;;;;5055920;28;20943;-56
2023/03/27 03:57:48;;;;;;;5.87;2.20;;;4.40;98.10;;;;;;5056117;28;20823;-56
2023/03/27 04:00:17;;;;;;;4.80;1.50;;;4.30;98.30;;;;;;5056143;28;20455;-56
2023/03/27 04:02:45;;;;;;;12.20;2.37;;;4.20;98.50;;;;;;5055524;28;21071;-56
2023/03/27 04:05:12;;;;;;;6.27;2.90;;;4.20;98.90;;;;;;5056056;28;20445;-56
2023/03/27 04:07:39;;;;;;;9.87;1.93;;;4.10;99.10;;;;;;5055914;28;20814;-56
2023/03/27 04:10:08;;;;;;;8.60;2.53;;;4.10;99.20;;;;;;5055985;28;20450;-56
2023/03/27 04:12:34;;;;;;;4.17;1.63;;;4.20;99.30;;;;;;5055876;28;20505;-56
2023/03/27 04:15:01;;;;;;;7.77;2.20;;;4.20;99.50;;;;;;5055842;28;20877;-56
2023/03/27 04:17:28;;;;;;;5.87;2.30;;;4.20;99.90;;;;;;5055770;28;20441;-56
2023/03/27 04:19:56;;;;;;;5.73;2.10;;;4.30;99.80;;;;;;5055785;28;20449;-56
2023/03/27 04:22:23;;;;;;;7.97;2.07;;;4.30;99.70;;;;;;5055463;28;20524;-56
2023/03/27 04:24:50;;;;;;;11.13;2.20;;;4.30;99.70;;;;;;5055538;28;20531;-56
2023/03/27 04:27:17;;;;;;;6.83;2.40;;;4.20;99.90;;;;;;5055674;28;20481;-56
2023/03/27 04:29:46;;;;;;;6.70;2.07;;;4.20;99.90;;;;;;5055516;28;20453;-56
2023/03/27 04:32:17;;;;;;;9.83;2.13;;;4.10;99.90;;;;;;5055365;28;20481;-56
2023/03/27 04:34:44;;;;;;;9.13;2.53;;;4.10;99.90;;;;;;5055604;28;20796;-56
2023/03/27 04:37:13;;;;;;;7.43;2.20;;;4.10;99.90;;;;;;5055385;28;20449;-56
2023/03/27 04:39:41;;;;;;;9.13;2.40;;;4.10;99.90;;;;;;5055318;28;20552;-56
2023/03/27 04:42:09;;;;;;;5.33;2.43;;;4.10;99.90;;;;;;5055221;28;20540;-56
2023/03/27 04:44:36;;;;;;;7.50;2.00;;;4.20;99.90;;;;;;5055235;28;20486;-56
2023/03/27 04:47:03;;;;;;;12.87;3.90;;;4.20;99.90;;;;;;5055288;28;20457;-56
2023/03/27 04:49:37;;;;;;;8.07;2.50;;;4.10;99.90;;;;;;5055047;28;20495;-56
2023/03/27 04:52:04;;;;;;;8.70;2.53;;;4.20;99.90;;;;;;5055096;28;20437;-56
2023/03/27 04:54:32;;;;;;;7.00;2.90;;;4.20;99.90;;;;;;5054710;28;20979;-56
2023/03/27 04:57:00;;;;;;;8.23;2.90;;;4.20;99.90;;;;;;5055104;28;20524;-55
2023/03/27 04:59:30;;;;;;;9.07;2.97;;;4.10;99.90;;;;;;5055155;28;20493;-56
2023/03/27 05:01:57;;;;;;;5.40;2.67;;;4.20;99.90;;;;;;5054881;28;20533;-56
2023/03/27 05:04:25;;;;;;;7.33;2.10;;;4.20;99.90;;;;;;5054764;28;20496;-56
2023/03/27 05:06:52;;;;;;;5.70;2.20;;;4.20;99.90;;;;;;5054751;28;20453;-56
2023/03/27 05:09:19;;;;;;;8.50;2.43;;;4.30;99.90;;;;;;5054814;28;20452;-56
2023/03/27 05:11:48;;;;;;;8.33;2.30;;;4.40;99.90;;;;;;5054792;28;20503;-56
2023/03/27 05:14:15;;;;;;;9.17;2.33;;;4.50;99.90;;;;;;5054859;28;20466;-56
2023/03/27 05:16:42;;;;;;;6.63;2.73;;;4.40;99.90;;;;;;5056307;28;20511;-56
2023/03/27 05:19:10;;;;;;;6.10;2.37;;;4.50;99.90;;;;;;5055563;28;20461;-56
2023/03/27 05:21:37;;;;;;;5.67;2.00;;;4.60;99.90;;;;;;5055035;28;20445;-56
2023/03/27 05:24:04;;;;;;;4.30;2.30;;;4.60;99.90;;;;;;5054488;28;21057;-56
2023/03/27 05:26:31;;;;;;;7.00;2.40;;;4.60;99.90;;;;;;5055018;28;20852;-56
2023/03/27 05:28:59;;;;;;;8.13;2.50;;;4.60;99.90;;;;;;5054855;28;20818;-56
2023/03/27 05:31:27;;;;;;;5.07;2.33;;;4.60;99.90;;;;;;5054609;28;20449;-56
2023/03/27 05:33:54;;;;;;;8.77;2.70;;;4.70;99.90;;;;;;5054472;28;20462;-56
2023/03/27 05:36:21;;;;;;;2.57;1.73;;;4.70;99.90;;;;;;5054559;28;20862;-55
2023/03/27 05:38:49;;;;;;;7.17;2.57;;;4.70;99.90;;;;;;5053948;28;20534;-55
2023/03/27 05:41:16;;;;;;;11.97;2.90;;;4.70;99.90;;;;;;5054132;28;20464;-55
2023/03/27 05:43:44;;;;;;;5.33;3.00;;;4.80;99.90;;;;;;5054236;28;20489;-55
2023/03/27 05:46:13;;;;;;;5.47;2.40;;;4.80;99.90;;;;;;5054417;28;20446;-55
2023/03/27 05:48:40;;;;;;;10.60;2.33;;;4.90;99.90;;;;;;5054056;28;20878;-55
2023/03/27 05:51:08;;;;;;;5.03;2.43;;;4.90;99.90;;;;;;5053860;28;20971;-55
2023/03/27 05:53:35;;;;;;;8.17;1.97;;;4.90;99.90;;;;;;5053632;28;20509;-55
2023/03/27 05:56:01;;;;;;;4.93;2.40;;;5.00;99.90;;;;;;5054113;28;20872;-56
2023/03/27 05:58:28;;;;;;;7.50;2.90;;;5.00;99.90;;;;;;5054308;28;20445;-55
2023/03/27 06:00:55;;;;;;;11.43;2.80;;;5.00;99.90;;;;;;5053669;28;20449;-55
2023/03/27 06:03:24;;;;;;;5.23;2.33;;;5.10;99.90;;;;;;5053807;28;20473;-55
2023/03/27 06:05:51;;;;;;;9.17;2.50;;;5.10;99.90;;;;;;5053663;28;20453;-56
2023/03/27 06:08:18;;;;;;;5.50;2.30;;;5.20;99.90;;;;;;5053747;28;20449;-56
2023/03/27 06:10:45;;;;;;;6.10;2.27;;;5.20;99.90;;;;;;5053859;28;20453;-56
2023/03/27 06:13:13;;;;;;;6.07;2.33;;;5.20;99.90;;;;;;5053641;28;20472;-55
2023/03/27 06:15:41;;;;;;;5.97;2.37;;;5.30;99.90;;;;;;5053678;28;20523;-55
2023/03/27 06:18:09;;;;;;;4.10;2.33;;;5.30;99.90;;;;;;5053564;28;20446;-56
2023/03/27 06:20:37;;;;;;;3.00;1.77;;;5.30;99.90;;;;;;5053621;28;20503;-56
2023/03/27 06:23:06;;;;;;;9.57;2.80;;;5.30;99.90;;;;;;5053543;28;20470;-55
2023/03/27 06:25:35;;;;;;;4.90;2.07;;;5.40;99.90;;;;;;5053238;28;21043;-56
2023/03/27 06:28:05;;;;;;;7.27;2.50;;;5.50;99.90;;;;;;5053617;28;20461;-56
2023/03/27 06:30:32;;;;;;;5.63;2.80;;;5.50;99.90;;;;;;5053501;28;20440;-55
2023/03/27 06:33:00;;;;;;;4.70;2.57;;;5.50;99.90;;;;;;5053431;28;20468;-55
2023/03/27 06:35:28;;;;;;;10.63;3.30;;;5.60;99.90;;;;;;5053397;28;20453;-55
2023/03/27 06:37:57;;;;;;;8.50;2.47;;;5.70;99.90;;;;;;5052867;28;20532;-55
2023/03/27 06:40:26;;;;;;;6.10;2.50;;;5.80;99.90;;;;;;5053046;28;20429;-55
2023/03/27 06:42:55;;;;;;;10.43;4.00;;;5.90;99.90;;;;;;5053266;28;20563;-55
2023/03/27 06:45:23;;;;;;;5.57;2.50;;;6.00;99.90;;;;;;5052874;28;21070;-55
2023/03/27 06:47:51;;;;;;;6.83;2.20;;;6.10;99.90;;;;;;5053146;28;20453;-55
2023/03/27 06:50:18;;;;;;;6.50;4.23;;;6.10;99.90;;;;;;5053104;28;20449;-55
2023/03/27 06:52:46;;;;;;;5.70;2.73;;;6.20;99.90;;;;;;5053103;28;20473;-55
2023/03/27 06:55:14;;;;;;;8.10;3.00;;;6.20;99.90;;;;;;5053140;28;20445;-55
2023/03/27 06:57:45;;;;;;;5.63;2.30;;;6.20;99.90;;;;;;5053115;28;20445;-55
2023/03/27 07:00:17;;;;;;;2.70;1.93;;;6.10;99.50;;;;;;5053063;28;20454;-55
2023/03/27 07:02:44;;;;;;;5.10;2.77;;;6.10;99.50;;;;;;5053044;28;20467;-55
2023/03/27 07:05:11;;;;;;;3.83;2.50;;;6.10;99.70;;;;;;5052822;28;20481;-55
2023/03/27 07:07:38;;;;;;;4.00;2.40;;;6.20;99.70;;;;;;5052633;28;20816;-55
2023/03/27 07:10:06;;;;;;;6.50;2.63;;;6.20;99.60;;;;;;5053088;28;20507;-55
2023/03/27 07:12:34;;;;;;;5.27;1.97;;;6.20;99.70;;;;;;5054234;28;20457;-55
2023/03/27 07:15:01;;;;;;;6.97;3.20;;;6.30;99.10;;;;;;5056921;28;20441;-55
2023/03/27 07:17:28;;;;;;;7.23;2.70;;;6.30;99.30;;;;;;5056847;28;20475;-55
2023/03/27 07:19:54;;;;;;;3.70;1.80;;;6.20;99.20;;;;;;5056807;28;20449;-55
2023/03/27 07:22:21;;;;;;;3.63;2.13;;;6.20;99.00;;;;;;5057472;28;20449;-56
2023/03/27 07:24:48;;;;;;;4.20;2.10;;;6.20;98.80;;;;;;5056237;28;20874;-55
2023/03/27 07:27:15;;;;;;;6.20;2.40;;;6.20;99.30;;;;;;5056718;28;20863;-55
2023/03/27 07:29:43;;;;;;;4.83;2.13;;;6.20;99.20;;;;;;5057089;28;20492;-55
2023/03/27 07:32:10;;;;;;;5.90;2.33;;;6.20;99.50;;;;;;5056166;28;20823;-55
2023/03/27 07:34:37;;;;;;;5.90;2.40;;;6.20;99.10;;;;;;5056547;28;20461;-55
2023/03/27 07:37:03;;;;;;;7.73;2.57;;;6.20;98.50;;;;;;5056178;28;20461;-55
2023/03/27 07:39:30;;;;;;;3.00;2.13;;;6.30;98.90;;;;;;5056182;28;20457;-55
2023/03/27 07:41:57;;;;;;;7.13;2.50;;;6.40;98.90;;;;;;5056403;28;20460;-55
2023/03/27 07:44:23;;;;;;;2.87;1.70;;;6.50;98.00;;;;;;5055959;28;20539;-56
2023/03/27 07:46:52;;;;;;;3.13;1.77;;;6.60;98.10;;;;;;5056369;28;20456;-55
2023/03/27 07:49:19;;;;;;;5.33;2.17;;;6.70;97.50;;;;;;5056772;28;20506;-55
2023/03/27 07:51:45;;;;;;;2.27;1.67;;;6.70;97.70;;;;;;5056262;28;20503;-55
2023/03/27 07:54:12;;;;;;;2.57;1.80;;;6.80;97.60;;;;;;5056098;28;20462;-55
2023/03/27 07:56:40;;;;;;;3.90;1.83;;;6.90;97.30;;;;;;5056099;28;20460;-55
2023/03/27 07:59:07;;;;;;;7.27;1.73;;;7.10;97.90;;;;;;5055774;28;21019;-55
2023/03/27 08:01:34;;;;;;;5.43;1.73;;;7.10;96.60;;;;;;5055681;28;20455;-55
2023/03/27 08:04:02;;;;;;;3.57;1.73;;;7.20;96.40;;;;;;5056079;28;20473;-56
2023/03/27 08:06:29;;;;;;;3.60;1.53;;;7.30;96.20;;;;;;5056122;28;20461;-55
2023/03/27 08:08:57;;;;;;;3.30;1.90;;;7.50;96.20;;;;;;5056679;28;20452;-55
2023/03/27 08:11:24;;;;;;;5.50;1.80;;;7.60;96.50;;;;;;5056277;28;20453;-55
2023/03/27 08:13:51;;;;;;;4.10;1.80;;;7.60;94.90;;;;;;5056270;28;20473;-55
2023/03/27 08:16:18;;;;;;;2.30;1.13;;;7.70;94.80;;;;;;5056267;28;20445;-55
2023/03/27 08:18:46;;;;;;;4.60;1.43;;;7.70;94.70;;;;;;5055919;28;20545;-55
2023/03/27 08:21:14;;;;;;;3.60;1.93;;;7.70;93.90;;;;;;5056059;28;20453;-55
2023/03/27 08:23:41;;;;;;;8.17;1.60;;;7.70;93.30;;;;;;5055436;28;20476;-56
2023/03/27 08:26:12;;;;;;;4.13;1.37;;;7.70;93.70;;;;;;5055738;28;20481;-55
2023/03/27 08:28:39;;;;;;;5.90;2.13;;;7.60;92.70;;;;;;5055766;28;20537;-55
2023/03/27 08:31:10;;;;;;;3.63;1.40;;;7.60;94.00;;;;;;5055407;28;20449;-56
2023/03/27 08:33:37;;;;;;;5.70;1.60;;;7.70;94.50;;;;;;5055506;28;20469;-56
2023/03/27 08:36:04;;;;;;;5.40;1.60;;;7.70;94.90;;;;;;5055333;28;20449;-55
2023/03/27 08:38:32;;;;;;;3.60;1.90;;;7.80;94.20;;;;;;5055127;28;21046;-56
2023/03/27 08:41:02;;;;;;;3.33;1.80;;;7.80;94.40;;;;;;5055397;28;20441;-55
2023/03/27 08:43:35;;;;;;;3.97;1.90;;;7.90;93.30;;;;;;5055353;28;20470;-55
2023/03/27 08:46:06;;;;;;;5.70;1.40;;;7.80;92.60;;;;;;5055444;28;20473;-55
2023/03/27 08:48:39;;;;;;;4.47;1.80;;;7.80;92.20;;;;;;5055319;28;20441;-55
2023/03/27 08:51:09;;;;;;;4.73;1.90;;;7.80;92.70;;;;;;5055446;28;20432;-55
2023/03/27 08:53:45;;;;;;;4.50;1.70;;;7.90;92.10;;;;;;5054943;28;20491;-55
2023/03/27 08:56:14;;;;;;;6.77;2.10;;;8.00;89.40;;;;;;5055143;28;20436;-55
2023/03/27 08:58:41;;;;;;;6.00;2.23;;;8.10;90.40;;;;;;5055019;28;20446;-55
2023/03/27 09:01:16;;;;;;;5.37;2.10;;;8.30;91.10;;;;;;5054944;28;20453;-55
2023/03/27 09:03:49;;;;;;;10.47;3.20;;;8.40;91.30;;;;;;5054586;28;20464;-55
2023/03/27 09:06:26;;;;;;;9.13;1.80;;;8.60;91.10;;;;;;5054605;28;20469;-56
2023/03/27 09:09:03;;;;;;;10.23;2.33;;;8.60;88.40;;;;;;5055464;28;20438;-55
2023/03/27 09:11:43;;;;;;;6.63;2.10;;;8.70;87.60;;;;;;5054470;28;20922;-55
2023/03/27 09:14:17;;;;;;;4.80;1.97;;;8.60;87.70;;;;;;5054408;28;20844;-56
2023/03/27 09:16:48;;;;;;;9.83;2.33;;;8.60;88.80;;;;;;5054988;28;20434;-55
2023/03/27 09:19:22;;;;;;;8.93;2.43;;;8.60;86.30;;;;;;5054761;28;20464;-55
2023/03/27 09:21:53;;;;;;;5.13;2.27;;;8.70;86.40;;;;;;5054659;28;20438;-55
2023/03/27 09:24:30;;;;;;;5.70;2.20;;;8.80;86.50;;;;;;5054161;28;20851;-55
2023/03/27 09:26:57;;;;;;;5.10;1.73;;;8.80;86.60;;;;;;5054632;28;20487;-55
2023/03/27 09:29:28;;;;;;;3.30;2.10;;;9.00;83.50;;;;;;5054480;28;20457;-55
2023/03/27 09:31:57;;;;;;;6.23;2.20;;;9.00;82.10;;;;;;5054457;28;20434;-55
2023/03/27 09:34:26;;;;;;;9.00;1.67;;;9.00;80.00;;;;;;5053798;28;20555;-55
2023/03/27 09:36:54;;;;;;;7.40;1.87;;;9.00;82.00;;;;;;5053847;28;20476;-55
2023/03/27 09:39:28;;;;;;;3.97;1.80;;;9.20;82.20;;;;;;5053927;28;20501;-56
2023/03/27 09:42:00;;;;;;;4.33;1.30;;;9.40;82.50;;;;;;5053986;28;20466;-56
2023/03/27 09:44:30;;;;;;;4.63;1.67;;;9.60;78.60;;;;;;5054166;28;20465;-55
2023/03/27 09:47:01;;;;;;;3.70;1.77;;;9.90;77.60;;;;;;5054045;28;20453;-55
2023/03/27 09:49:27;;;;;;;8.83;1.70;;;10.10;73.20;;;;;;5053825;28;20904;-55
2023/03/27 09:51:55;;;;;;;11.00;1.70;;;10.10;73.30;;;;;;5054242;28;20449;-55
2023/03/27 09:54:27;;;;;;;6.93;1.73;;;10.00;73.30;;;;;;5053774;28;20469;-56
2023/03/27 09:57:00;;;;;;;4.13;2.57;;;10.20;72.60;;;;;;5053984;28;20824;-56
2023/03/27 09:59:32;;;;;;;6.27;2.30;;;10.20;71.10;;;;;;5053935;28;20500;-56
2023/03/27 10:02:01;;;;;;;5.37;1.10;;;10.30;70.00;;;;;;5053573;28;20943;-56
2023/03/27 10:04:29;;;;;;;5.60;1.80;;;10.50;70.10;;;;;;5053690;28;20470;-55
2023/03/27 10:07:01;;;;;;;8.13;2.33;;;10.40;69.30;;;;;;5053688;28;20469;-55
2023/03/27 10:09:33;;;;;;;6.60;1.70;;;10.20;68.30;;;;;;5053467;28;20449;-56
2023/03/27 10:12:03;;;;;;;2.10;1.47;;;10.20;70.60;;;;;;5053721;28;20437;-56
2023/03/27 10:14:33;;;;;;;5.40;1.50;;;10.30;71.60;;;;;;5053579;28;20504;-56
2023/03/27 10:17:00;;;;;;;3.63;1.93;;;10.40;67.50;;;;;;5053630;28;20454;-56
2023/03/27 10:19:30;;;;;;;2.90;1.30;;;10.10;66.60;;;;;;5053580;28;20880;-56
2023/03/27 10:22:02;;;;;;;4.47;1.73;;;10.00;69.30;;;;;;5053600;28;20476;-56
2023/03/27 10:24:34;;;;;;;3.30;1.57;;;9.90;71.90;;;;;;5053162;28;20466;-56
2023/03/27 10:27:04;;;;;;;5.13;1.43;;;10.20;73.70;;;;;;5053521;28;20421;-56
2023/03/27 10:29:34;;;;;;;6.57;1.37;;;10.30;69.60;;;;;;5053766;28;20441;-56
2023/03/27 10:32:04;;;;;;;6.40;1.30;;;10.70;71.60;;;;;;5053600;28;20467;-56
2023/03/27 10:34:36;;;;;;;7.87;1.07;;;11.00;70.10;;;;;;5053062;28;20470;-56
2023/03/27 10:37:19;;;;;;;3.70;1.17;;;10.90;64.00;;;;;;5052958;28;20918;-56
2023/03/27 10:39:47;;;;;;;2.27;1.03;;;10.60;66.20;;;;;;5053205;28;20894;-56
2023/03/27 10:42:16;;;;;;;4.53;1.00;;;10.40;66.80;;;;;;5053102;28;20948;-56
2023/03/27 10:44:45;;;;;;;3.07;1.10;;;10.30;67.60;;;;;;5053291;28;20438;-56
2023/03/27 10:47:18;;;;;;;2.20;1.27;;;10.30;67.60;;;;;;5057520;28;20866;-56
2023/03/27 10:49:52;;;;;;;1.80;0.60;;;10.60;66.40;;;;;;5059526;28;20951;-56
2023/03/27 10:52:23;;;;;;;5.83;1.87;;;10.40;65.60;;;;;;5059444;28;20469;-57
2023/03/27 10:55:07;;;;;;;3.20;2.07;;;10.50;65.20;;;;;;5059766;28;20457;-56
2023/03/27 10:57:35;;;;;;;3.47;1.20;;;10.50;64.30;;;;;;5059875;28;20433;-56
2023/03/27 11:00:10;;;;;;;1.90;0.87;;;10.70;66.70;;;;;;5060436;28;20460;-56
2023/03/27 11:02:44;;;;;;;2.43;1.03;;;10.90;63.50;;;;;;5060468;28;20472;-56
2023/03/27 11:05:15;;;;;;;2.20;1.00;;;11.60;63.50;;;;;;5059814;28;20469;-56
2023/03/27 11:07:46;;;;;;;1.17;0.90;;;12.10;57.00;;;;;;5059931;28;20430;-56
2023/03/27 11:10:18;;;;;;;2.93;0.90;;;12.00;57.50;;;;;;5060150;28;20442;-56
2023/03/27 11:12:53;;;;;;;2.47;1.00;;;11.60;60.70;;;;;;5059864;28;20473;-56
2023/03/27 11:15:26;;;;;;;2.60;0.87;;;10.90;61.40;;;;;;5059803;28;20433;-56
2023/03/27 11:17:58;;;;;;;4.07;1.37;;;10.40;66.00;;;;;;5059778;28;20433;-56
2023/03/27 11:20:30;;;;;;;8.30;1.30;;;10.10;67.60;;;;;;5060050;28;20429;-56
2023/03/27 11:23:01;;;;;;;1.47;0.80;;;10.20;72.40;;;;;;5059929;28;20476;-56
2023/03/27 11:25:37;;;;;;;3.40;1.70;;;11.10;72.10;;;;;;5059638;28;20465;-56
2023/03/27 11:28:18;;;;;;;1.83;0.93;;;12.20;66.30;;;;;;5059641;28;20441;-56
2023/03/27 11:30:49;;;;;;;3.80;1.67;;;13.40;61.80;;;;;;5059498;28;20433;-58
2023/03/27 11:33:38;;;;;;;3.00;1.70;;;14.50;62.00;;;;;;5059735;28;20559;-56
2023/03/27 11:36:16;;;;;;;3.70;2.50;;;15.00;59.40;;;;;;5059585;28;20432;-56
2023/03/27 11:38:50;;;;;;;3.17;2.80;;;14.60;58.30;;;;;;5059218;28;20464;-56
2023/03/27 11:41:18;;;;;;;1.87;1.67;;;13.90;58.50;;;;;;5059532;28;20888;-55
2023/03/27 11:43:44;;;;;;;3.10;2.50;;;13.00;61.70;;;;;;5059079;28;21045;-55
2023/03/27 11:46:24;;;;;;;2.30;2.10;;;12.30;64.80;;;;;;5059433;28;20587;-55
2023/03/27 11:49:03;;;;;;;1.90;0.80;;;11.70;68.30;;;;;;5059392;28;20499;-55
2023/03/27 11:51:45;;;;;;;4.40;1.73;;;11.40;72.00;;;;;;5059406;28;20444;-55
2023/03/27 11:54:24;;;;;;;2.80;1.10;;;11.20;73.80;;;;;;5058855;28;20481;-55
2023/03/27 11:56:54;;;;;;;2.27;0.67;;;11.30;76.70;;;;;;5059935;28;20457;-55
2023/03/27 11:59:41;;;;;;;1.73;1.00;;;11.70;77.20;;;;;;5055640;28;20449;-55
2023/03/27 12:02:24;;;;;;;1.77;0.57;;;12.80;76.00;;;;;;5056065;28;20462;-56
2023/03/27 12:04:55;;;;;;;0.80;0.30;;;14.50;70.70;;;;;;5055952;28;20434;-58
2023/03/27 12:07:32;;;;;;;1.07;0.73;;;15.70;58.70;;;;;;5055950;28;20477;-56
2023/03/27 12:10:13;;;;;;;2.53;0.63;;;15.70;56.50;;;;;;5055618;28;20445;-56
2023/03/27 12:13:06;;;;;;;4.50;1.00;;;15.10;56.00;;;;;;5055898;28;20468;-55
2023/03/27 12:15:49;;;;;;;2.57;0.80;;;13.50;56.00;;;;;;5056239;28;20426;-55
2023/03/27 12:18:37;;;;;;;2.27;1.73;;;11.70;62.60;;;;;;5055917;28;20438;-55
2023/03/27 12:21:22;;;;;;;1.70;0.90;;;10.30;63.50;;;;;;5055467;28;20441;-55
2023/03/27 12:24:20;;;;;;;1.43;0.70;;;9.50;69.00;;;;;;5055638;28;20571;-55
2023/03/27 12:26:57;;;;;;;4.60;0.80;;;9.30;73.60;;;;;;5055571;28;20476;-55
2023/03/27 12:29:38;;;;;;;1.10;0.70;;;9.80;76.30;;;;;;5055620;28;20479;-55
2023/03/27 12:32:20;;;;;;;2.10;0.80;;;11.30;70.30;;;;;;5055590;28;20836;-56
2023/03/27 12:34:53;;;;;;;3.33;0.87;;;12.90;64.60;;;;;;5055561;28;20426;-56
2023/03/27 12:37:23;;;;;;;2.50;1.30;;;14.20;57.60;;;;;;5055451;28;20480;-56
2023/03/27 12:39:52;;;;;;;1.30;0.80;;;15.30;56.00;;;;;;5055057;28;20994;-56
2023/03/27 12:42:41;;;;;;;1.83;0.67;;;15.90;52.50;;;;;;5055235;28;20450;-56
2023/03/27 12:45:16;;;;;;;1.73;0.67;;;15.70;51.40;;;;;;5055291;28;20450;-56
2023/03/27 12:48:16;;;;;;;1.60;0.97;;;14.90;53.10;;;;;;5054961;28;20926;-55
2023/03/27 12:50:46;;;;;;;2.63;0.90;;;14.10;54.30;;;;;;5055173;28;20818;-56
2023/03/27 12:53:19;;;;;;;3.03;0.90;;;12.50;56.60;;;;;;5055012;28;20466;-55
2023/03/27 12:55:46;;;;;;;2.70;0.90;;;10.90;62.40;;;;;;5055160;28;20449;-54
2023/03/27 12:58:31;;;;;;;2.37;1.17;;;10.10;70.10;;;;;;5054755;28;20457;-54
2023/03/27 13:01:00;;;;;;;4.03;1.30;;;9.80;75.90;;;;;;5055017;28;20440;-54
2023/03/27 13:03:47;;;;;;;3.43;1.30;;;9.80;80.20;;;;;;5054884;28;20565;-55
2023/03/27 13:06:31;;;;;;;3.70;1.60;;;10.90;84.90;;;;;;5054666;28;20857;-55
2023/03/27 13:09:18;;;;;;;1.87;0.93;;;12.90;76.90;;;;;;5054585;28;20457;-55
2023/03/27 13:12:00;;;;;;;2.60;0.80;;;14.90;67.60;;;;;;5054356;28;20445;-56
2023/03/27 13:14:46;;;;;;;1.67;1.00;;;17.00;62.40;;;;;;5054733;28;20462;-56